createdAt,value
2018-05-21T00:01:51.202Z,18.79
2018-05-21T00:04:18.100Z,18.93
2018-05-21T00:06:44.992Z,18.75
2018-05-21T00:09:11.695Z,18.75
2018-05-21T00:11:38.618Z,18.71
2018-05-21T00:14:05.978Z,18.72
2018-05-21T00:16:32.624Z,18.68
2018-05-21T00:18:59.376Z,18.59
2018-05-21T00:21:26.000Z,18.54
2018-05-21T00:23:52.700Z,18.57
2018-05-21T00:26:19.366Z,18.52
2018-05-21T00:28:46.743Z,18.51
2018-05-21T00:31:13.418Z,18.55
2018-05-21T00:33:40.145Z,18.39
2018-05-21T00:36:06.778Z,18.49
2018-05-21T00:38:33.450Z,18.45
2018-05-21T00:41:00.172Z,18.45
2018-05-21T00:43:27.095Z,18.41
2018-05-21T00:45:53.781Z,18.36
2018-05-21T00:48:21.225Z,18.28
2018-05-21T00:50:48.599Z,18.18
2018-05-21T00:53:15.566Z,18.11
2018-05-21T00:55:42.939Z,18.07
2018-05-21T00:58:09.648Z,18.04
2018-05-21T01:00:37.116Z,17.99
2018-05-21T01:03:04.598Z,17.98
2018-05-21T01:05:31.262Z,17.96
2018-05-21T01:07:57.945Z,18.05
2018-05-21T01:10:25.459Z,18.01
2018-05-21T01:12:52.222Z,17.94
2018-05-21T01:15:18.940Z,17.93
2018-05-21T01:17:45.588Z,17.91
2018-05-21T01:20:12.261Z,17.86
2018-05-21T01:22:39.104Z,17.82
2018-05-21T01:25:05.748Z,17.81
2018-05-21T01:27:33.124Z,17.81
2018-05-21T01:29:59.825Z,17.80
2018-05-21T01:32:26.465Z,17.74
2018-05-21T01:34:53.125Z,17.74
2018-05-21T01:37:20.785Z,17.61
2018-05-21T01:39:48.203Z,17.59
2018-05-21T01:42:14.886Z,17.59
2018-05-21T01:44:42.551Z,17.58
2018-05-21T01:47:10.065Z,17.49
2018-05-21T01:49:36.729Z,17.47
2018-05-21T01:52:03.380Z,17.42
2018-05-21T01:54:30.765Z,17.39
2018-05-21T01:56:57.389Z,17.30
2018-05-21T01:59:24.014Z,17.25
2018-05-21T02:01:51.401Z,17.25
2018-05-21T02:04:18.077Z,17.19
2018-05-21T02:06:44.716Z,17.19
2018-05-21T02:09:11.336Z,17.28
2018-05-21T02:11:38.036Z,17.17
2018-05-21T02:14:05.604Z,17.12
2018-05-21T02:16:32.277Z,17.08
2018-05-21T02:18:59.092Z,17.03
2018-05-21T02:21:25.761Z,16.95
2018-05-21T02:23:52.541Z,16.87
2018-05-21T02:26:20.012Z,16.87
2018-05-21T02:28:47.423Z,16.83
2018-05-21T02:31:14.170Z,16.83
2018-05-21T02:33:40.808Z,16.88
2018-05-21T02:36:07.612Z,16.84
2018-05-21T02:38:34.265Z,16.81
2018-05-21T02:41:00.893Z,16.80
2018-05-21T02:43:27.658Z,16.73
2018-05-21T02:45:54.421Z,16.75
2018-05-21T02:48:21.074Z,16.72
2018-05-21T02:50:47.924Z,16.75
2018-05-21T02:53:15.388Z,16.64
2018-05-21T02:55:43.000Z,16.66
2018-05-21T02:58:09.765Z,16.55
2018-05-21T03:00:36.369Z,16.48
2018-05-21T03:03:03.151Z,16.48
2018-05-21T03:05:29.948Z,16.34
2018-05-21T03:07:56.660Z,16.41
2018-05-21T03:10:24.212Z,16.40
2018-05-21T03:12:51.740Z,16.39
2018-05-21T03:15:18.404Z,16.31
2018-05-21T03:17:45.865Z,16.31
2018-05-21T03:20:13.303Z,16.27
2018-05-21T03:22:39.901Z,16.30
2018-05-21T03:25:06.674Z,16.28
2018-05-21T03:27:33.338Z,16.29
2018-05-21T03:30:00.718Z,16.43
2018-05-21T03:32:27.503Z,16.45
2018-05-21T03:34:54.324Z,16.47
2018-05-21T03:37:21.132Z,16.33
2018-05-21T03:39:48.538Z,16.34
2018-05-21T03:42:15.227Z,16.37
2018-05-21T03:44:41.941Z,16.40
2018-05-21T03:47:08.822Z,16.21
2018-05-21T03:49:35.493Z,16.38
2018-05-21T03:52:02.357Z,16.35
2018-05-21T03:54:29.023Z,16.23
2018-05-21T03:56:56.422Z,16.25
2018-05-21T03:59:41.421Z,16.22
2018-05-21T04:05:14.876Z,16.10
2018-05-21T04:07:41.694Z,16.20
2018-05-21T04:10:08.354Z,16.18
2018-05-21T04:12:35.738Z,16.20
2018-05-21T04:15:02.411Z,16.29
2018-05-21T04:17:29.034Z,16.40
2018-05-21T04:19:55.729Z,16.29
2018-05-21T04:22:23.768Z,16.35
2018-05-21T04:24:50.403Z,16.44
2018-05-21T04:27:17.128Z,16.47
2018-05-21T04:29:43.776Z,16.54
2018-05-21T04:32:10.485Z,16.66
2018-05-21T04:34:37.434Z,16.52
2018-05-21T04:37:04.088Z,16.59
2018-05-21T04:39:30.738Z,16.66
2018-05-21T04:41:57.565Z,16.71
2018-05-21T04:44:24.199Z,16.64
2018-05-21T04:46:50.871Z,16.68
2018-05-21T04:49:18.451Z,16.72
2018-05-21T04:51:45.850Z,16.62
2018-05-21T04:54:13.366Z,16.73
2018-05-21T04:56:40.786Z,16.91
2018-05-21T04:59:07.441Z,17.05
2018-05-21T05:01:34.800Z,16.95
2018-05-21T05:04:02.103Z,17.06
2018-05-21T05:06:29.677Z,17.09
2018-05-21T05:08:56.554Z,17.14
2018-05-21T05:11:23.392Z,16.97
2018-05-21T05:13:50.103Z,17.00
2018-05-21T05:16:16.773Z,16.99
2018-05-21T05:18:44.899Z,17.12
2018-05-21T05:21:11.686Z,16.95
2018-05-21T05:23:38.522Z,17.13
2018-05-21T05:26:05.202Z,17.10
2018-05-21T05:28:32.628Z,17.52
2018-05-21T05:30:59.372Z,17.78
2018-05-21T05:33:26.201Z,17.93
2018-05-21T05:35:52.935Z,17.98
2018-05-21T05:38:20.256Z,18.17
2018-05-21T05:40:46.902Z,18.05
2018-05-21T05:43:13.734Z,18.16
2018-05-21T05:45:40.415Z,17.95
2018-05-21T05:48:07.073Z,17.82
2018-05-21T05:50:33.725Z,17.66
2018-05-21T05:53:00.574Z,17.66
2018-05-21T05:55:27.948Z,17.90
2018-05-21T05:57:54.627Z,17.99
2018-05-21T06:00:21.255Z,18.14
2018-05-21T06:02:47.961Z,17.87
2018-05-21T06:05:15.467Z,18.04
2018-05-21T06:07:42.090Z,18.11
2018-05-21T06:10:09.558Z,18.03
2018-05-21T06:12:36.283Z,18.08
2018-05-21T06:15:03.147Z,18.16
2018-05-21T06:17:29.792Z,18.33
2018-05-21T06:19:56.578Z,18.60
2018-05-21T06:22:23.945Z,18.84
2018-05-21T06:24:50.639Z,19.12
2018-05-21T06:27:17.265Z,19.13
2018-05-21T06:29:43.968Z,19.30
2018-05-21T06:32:10.768Z,18.94
2018-05-21T06:34:37.515Z,18.89
2018-05-21T06:37:04.220Z,19.14
2018-05-21T06:39:30.861Z,19.26
2018-05-21T06:41:57.735Z,19.12
2018-05-21T06:44:24.453Z,19.16
2018-05-21T06:46:51.132Z,19.38
2018-05-21T06:49:18.604Z,19.28
2018-05-21T06:51:45.248Z,19.55
2018-05-21T06:54:11.940Z,19.69
2018-05-21T06:56:39.306Z,19.77
2018-05-21T06:59:06.170Z,19.99
2018-05-21T07:01:33.537Z,20.14
2018-05-21T07:04:00.225Z,20.21
2018-05-21T07:06:26.854Z,20.38
2018-05-21T07:08:53.527Z,20.63
2018-05-21T07:11:20.156Z,20.76
2018-05-21T07:13:47.012Z,20.95
2018-05-21T07:16:14.407Z,21.01
2018-05-21T07:18:41.132Z,20.96
2018-05-21T07:21:08.400Z,21.05
2018-05-21T07:23:35.364Z,21.34
2018-05-21T07:26:02.012Z,21.42
2018-05-21T07:28:28.774Z,21.43
2018-05-21T07:30:55.453Z,21.55
2018-05-21T07:33:22.084Z,21.76
2018-05-21T07:35:49.453Z,21.64
2018-05-21T07:38:16.207Z,21.75
2018-05-21T07:40:42.836Z,21.77
2018-05-21T07:43:09.559Z,21.67
2018-05-21T07:45:37.055Z,21.60
2018-05-21T07:48:03.678Z,21.87
2018-05-21T07:50:30.326Z,21.99
2018-05-21T07:52:57.076Z,22.00
2018-05-21T07:55:23.706Z,22.05
2018-05-21T07:57:50.368Z,21.98
2018-05-21T08:00:17.019Z,21.75
2018-05-21T08:02:43.704Z,21.87
2018-05-21T08:05:10.537Z,21.76
2018-05-21T08:07:37.165Z,21.83
2018-05-21T08:10:04.562Z,21.73
2018-05-21T08:12:31.227Z,21.96
2018-05-21T08:14:57.908Z,21.98
2018-05-21T08:17:25.330Z,21.95
2018-05-21T08:19:51.960Z,22.05
2018-05-21T08:22:18.751Z,22.17
2018-05-21T08:24:46.327Z,22.37
2018-05-21T08:27:13.010Z,22.23
2018-05-21T08:29:39.684Z,22.42
2018-05-21T08:32:07.217Z,22.46
2018-05-21T08:34:33.861Z,22.39
2018-05-21T08:37:01.324Z,22.61
2018-05-21T08:39:28.721Z,22.58
2018-05-21T08:41:55.405Z,22.60
2018-05-21T08:44:22.861Z,22.64
2018-05-21T08:46:50.394Z,22.71
2018-05-21T08:49:17.189Z,22.73
2018-05-21T08:51:44.652Z,22.86
2018-05-21T08:54:12.075Z,22.91
2018-05-21T08:56:40.257Z,22.97
2018-05-21T08:59:06.875Z,23.13
2018-05-21T09:01:33.586Z,23.15
2018-05-21T09:04:00.245Z,23.22
2018-05-21T09:06:26.953Z,23.28
2018-05-21T09:08:53.637Z,23.22
2018-05-21T09:11:20.300Z,23.33
2018-05-21T09:13:47.677Z,23.45
2018-05-21T09:16:14.395Z,23.29
2018-05-21T09:18:41.008Z,23.41
2018-05-21T09:21:07.685Z,23.46
2018-05-21T09:23:35.143Z,23.61
2018-05-21T09:26:02.613Z,23.80
2018-05-21T09:28:30.150Z,23.69
2018-05-21T09:30:57.790Z,23.71
2018-05-21T09:33:24.404Z,23.70
2018-05-21T09:35:51.033Z,23.64
2018-05-21T09:38:17.802Z,23.69
2018-05-21T09:40:44.466Z,23.75
2018-05-21T09:43:11.861Z,23.84
2018-05-21T09:45:38.517Z,23.80
2018-05-21T09:48:05.251Z,23.93
2018-05-21T09:50:31.901Z,23.90
2018-05-21T09:52:58.604Z,23.88
2018-05-21T09:55:25.225Z,23.89
2018-05-21T09:57:52.576Z,23.98
2018-05-21T10:00:19.252Z,24.13
2018-05-21T10:02:45.981Z,24.26
2018-05-21T10:05:12.644Z,24.28
2018-05-21T10:07:39.412Z,24.28
2018-05-21T10:10:06.524Z,24.26
2018-05-21T10:14:56.273Z,24.49
2018-05-21T10:17:22.905Z,24.39
2018-05-21T10:19:49.537Z,24.42
2018-05-21T10:22:16.383Z,24.37
2018-05-21T10:24:43.024Z,24.38
2018-05-21T10:27:09.740Z,24.57
2018-05-21T10:29:36.728Z,24.41
2018-05-21T10:32:07.272Z,24.28
2018-05-21T10:34:33.888Z,24.46
2018-05-21T10:37:01.409Z,24.39
2018-05-21T10:39:28.070Z,24.29
2018-05-21T10:41:54.740Z,24.32
2018-05-21T10:44:22.139Z,24.27
2018-05-21T10:46:48.900Z,24.49
2018-05-21T10:49:15.969Z,24.35
2018-05-21T10:51:43.425Z,24.28
2018-05-21T10:54:10.112Z,24.35
2018-05-21T10:56:37.022Z,24.35
2018-05-21T10:59:03.853Z,24.59
2018-05-21T11:01:37.449Z,24.64
2018-05-21T11:04:05.288Z,24.75
2018-05-21T11:06:32.404Z,24.53
2018-05-21T11:08:59.087Z,24.44
2018-05-21T11:11:25.739Z,24.52
2018-05-21T11:13:52.648Z,24.64
2018-05-21T11:16:19.421Z,24.75
2018-05-21T11:18:46.288Z,25.08
2018-05-21T11:21:14.085Z,25.36
2018-05-21T11:23:41.038Z,25.30
2018-05-21T11:26:07.757Z,25.40
2018-05-21T11:28:34.914Z,25.41
2018-05-21T11:31:01.854Z,25.40
2018-05-21T11:33:28.552Z,25.14
2018-05-21T11:35:55.626Z,25.23
2018-05-21T11:38:23.540Z,25.20
2018-05-21T11:40:50.551Z,25.23
2018-05-21T11:43:17.968Z,25.05
2018-05-21T11:45:46.223Z,25.07
2018-05-21T11:48:13.813Z,25.30
2018-05-21T11:50:40.811Z,25.34
2018-05-21T11:53:07.534Z,25.66
2018-05-21T11:55:36.108Z,25.93
2018-05-21T11:58:05.530Z,25.93
2018-05-21T12:00:33.542Z,25.69
2018-05-21T12:03:00.222Z,25.71
2018-05-21T12:05:27.629Z,25.84
2018-05-21T12:07:54.721Z,25.98
2018-05-21T12:10:23.875Z,25.78
2018-05-21T12:12:50.677Z,25.89
2018-05-21T12:15:17.417Z,26.05
2018-05-21T12:17:45.105Z,26.14
2018-05-21T12:20:11.773Z,26.37
2018-05-21T12:22:38.426Z,26.56
2018-05-21T12:25:05.145Z,26.44
2018-05-21T12:27:31.809Z,26.37
2018-05-21T12:29:58.495Z,26.46
2018-05-21T12:32:25.249Z,26.55
2018-05-21T12:34:51.924Z,26.57
2018-05-21T12:37:18.575Z,26.45
2018-05-21T12:39:46.386Z,26.42
2018-05-21T12:42:13.128Z,26.45
2018-05-21T12:44:39.881Z,26.58
2018-05-21T12:47:06.638Z,26.56
2018-05-21T12:49:33.261Z,26.63
2018-05-21T12:51:59.892Z,26.78
2018-05-21T12:54:26.596Z,27.04
2018-05-21T12:56:54.009Z,27.08
2018-05-21T12:59:20.675Z,27.20
2018-05-21T13:01:48.077Z,27.55
2018-05-21T13:04:14.734Z,27.69
2018-05-21T13:06:41.426Z,28.07
2018-05-21T13:09:08.885Z,28.42
2018-05-21T13:11:36.737Z,28.62
2018-05-21T13:14:06.100Z,28.89
2018-05-21T13:16:32.769Z,28.80
2018-05-21T13:18:59.502Z,28.36
2018-05-21T13:21:26.710Z,28.06
2018-05-21T13:23:53.605Z,28.10
2018-05-21T13:26:20.302Z,27.66
2018-05-21T13:28:48.612Z,27.42
2018-05-21T13:31:15.687Z,27.98
2018-05-21T13:33:43.471Z,28.49
2018-05-21T13:36:10.105Z,28.83
2018-05-21T13:38:37.854Z,29.15
2018-05-21T13:41:05.035Z,29.00
2018-05-21T13:43:31.825Z,29.32
2018-05-21T13:45:58.716Z,29.55
2018-05-21T13:48:25.797Z,29.44
2018-05-21T13:50:52.509Z,28.87
2018-05-21T13:53:19.350Z,29.29
2018-05-21T13:55:46.466Z,29.68
2018-05-21T13:58:15.203Z,29.80
2018-05-21T14:00:42.723Z,30.00
2018-05-21T14:03:10.160Z,30.60
2018-05-21T14:05:37.545Z,30.70
2018-05-21T14:08:05.672Z,30.96
2018-05-21T14:10:32.354Z,31.15
2018-05-21T14:12:59.760Z,31.09
2018-05-21T14:15:26.959Z,30.70
2018-05-21T14:17:54.527Z,30.46
2018-05-21T14:20:21.933Z,30.61
2018-05-21T14:22:48.875Z,30.13
2018-05-21T14:25:16.157Z,29.43
2018-05-21T14:27:42.782Z,29.30
2018-05-21T14:30:09.912Z,29.46
2018-05-21T14:32:38.596Z,29.75
2018-05-21T14:35:06.861Z,29.80
2018-05-21T14:37:34.010Z,29.61
2018-05-21T14:40:00.693Z,29.98
2018-05-21T14:42:27.864Z,30.43
2018-05-21T14:44:55.656Z,30.77
2018-05-21T14:47:22.317Z,30.62
2018-05-21T14:49:49.549Z,30.15
2018-05-21T14:52:16.463Z,29.88
2018-05-21T14:54:43.082Z,30.09
2018-05-21T14:57:10.788Z,30.30
2018-05-21T14:59:38.424Z,29.63
2018-05-21T15:02:05.136Z,29.24
2018-05-21T15:04:32.525Z,29.30
2018-05-21T15:07:00.706Z,29.76
2018-05-21T15:09:28.677Z,30.27
2018-05-21T15:11:59.346Z,30.73
2018-05-21T15:14:26.433Z,31.27
2018-05-21T15:16:53.266Z,31.48
2018-05-21T15:19:20.679Z,31.50
2018-05-21T15:21:47.953Z,31.26
2018-05-21T15:24:14.712Z,30.97
2018-05-21T15:26:41.352Z,30.28
2018-05-21T15:29:08.211Z,29.17
2018-05-21T15:31:34.858Z,28.34
2018-05-21T15:34:02.223Z,28.16
2018-05-21T15:36:30.043Z,28.32
2018-05-21T15:38:57.097Z,28.10
2018-05-21T15:41:23.800Z,27.92
2018-05-21T15:43:51.585Z,28.13
2018-05-21T15:46:18.533Z,28.22
2018-05-21T15:48:45.383Z,28.33
2018-05-21T15:51:12.751Z,28.39
2018-05-21T15:53:39.584Z,28.39
2018-05-21T15:56:06.245Z,28.46
2018-05-21T15:58:32.902Z,28.37
2018-05-21T16:01:00.849Z,28.22
2018-05-21T16:03:27.828Z,28.03
2018-05-21T16:05:55.269Z,28.07
2018-05-21T16:08:21.971Z,28.03
2018-05-21T16:10:49.190Z,27.98
2018-05-21T16:13:17.007Z,27.88
2018-05-21T16:15:43.861Z,27.89
2018-05-21T16:18:10.525Z,27.74
2018-05-21T16:20:37.952Z,27.58
2018-05-21T16:23:04.761Z,27.47
2018-05-21T16:25:31.403Z,27.01
2018-05-21T16:27:58.181Z,26.78
2018-05-21T16:30:24.836Z,26.71
2018-05-21T16:32:52.488Z,26.59
2018-05-21T16:35:19.701Z,26.45
2018-05-21T16:37:46.397Z,26.29
2018-05-21T16:40:13.813Z,26.06
2018-05-21T16:42:42.292Z,26.17
2018-05-21T16:45:08.988Z,26.26
2018-05-21T16:47:36.453Z,26.33
2018-05-21T16:50:03.122Z,26.22
2018-05-21T16:52:29.928Z,26.28
2018-05-21T16:54:56.647Z,26.19
2018-05-21T16:57:23.313Z,26.27
2018-05-21T16:59:50.380Z,26.10
2018-05-21T17:02:17.126Z,26.08
2018-05-21T17:04:43.897Z,25.99
2018-05-21T17:07:10.561Z,25.90
2018-05-21T17:09:38.001Z,25.93
2018-05-21T17:12:04.666Z,25.79
2018-05-21T17:14:33.206Z,25.79
2018-05-21T17:17:00.042Z,25.82
2018-05-21T17:19:26.736Z,25.92
2018-05-21T17:21:54.192Z,25.87
2018-05-21T17:24:21.629Z,25.80
2018-05-21T17:26:48.551Z,25.80
2018-05-21T17:29:15.794Z,25.71
2018-05-21T17:31:42.545Z,25.70
2018-05-21T17:34:09.201Z,25.67
2018-05-21T17:36:37.357Z,25.77
2018-05-21T17:39:04.975Z,25.79
2018-05-21T17:41:31.748Z,25.82
2018-05-21T17:43:58.412Z,25.90
2018-05-21T17:46:25.146Z,25.93
2018-05-21T17:48:53.391Z,25.91
2018-05-21T17:51:20.237Z,25.91
2018-05-21T17:53:46.957Z,25.79
2018-05-21T17:56:15.492Z,25.79
2018-05-21T17:58:44.965Z,25.82
2018-05-21T18:01:11.862Z,25.73
2018-05-21T18:03:39.841Z,25.58
2018-05-21T18:06:07.418Z,25.44
2018-05-21T18:08:34.795Z,25.40
2018-05-21T18:11:01.504Z,25.38
2018-05-21T18:13:31.016Z,25.32
2018-05-21T18:15:57.882Z,25.22
2018-05-21T18:18:24.729Z,25.17
2018-05-21T18:20:52.077Z,25.12
2018-05-21T18:23:18.737Z,25.08
2018-05-21T18:25:45.913Z,24.96
2018-05-21T18:28:12.569Z,25.01
2018-05-21T18:30:40.151Z,25.03
2018-05-21T18:33:07.781Z,24.94
2018-05-21T18:35:36.282Z,24.96
2018-05-21T18:38:03.749Z,24.89
2018-05-21T18:40:30.444Z,24.87
2018-05-21T18:42:57.579Z,24.83
2018-05-21T18:45:24.238Z,24.82
2018-05-21T18:47:51.074Z,24.80
2018-05-21T18:50:17.804Z,24.76
2018-05-21T18:52:45.057Z,24.75
2018-05-21T18:55:11.746Z,24.67
2018-05-21T18:57:39.157Z,24.71
2018-05-21T19:00:06.615Z,24.72
2018-05-21T19:02:33.433Z,24.74
2018-05-21T19:05:00.158Z,24.64
2018-05-21T19:07:26.851Z,24.60
2018-05-21T19:09:53.543Z,24.61
2018-05-21T19:12:20.446Z,24.53
2018-05-21T19:14:47.735Z,24.43
2018-05-21T19:17:14.450Z,24.40
2018-05-21T19:19:42.025Z,24.41
2018-05-21T19:22:09.939Z,24.36
2018-05-21T19:24:36.635Z,24.37
2018-05-21T19:27:04.734Z,24.28
2018-05-21T19:29:31.425Z,24.21
2018-05-21T19:32:00.372Z,24.23
2018-05-21T19:34:27.042Z,24.17
2018-05-21T19:36:54.485Z,24.18
2018-05-21T19:39:21.767Z,24.10
2018-05-21T19:41:49.923Z,24.13
2018-05-21T19:44:16.630Z,23.98
2018-05-21T19:46:43.503Z,24.03
2018-05-21T19:49:10.579Z,24.07
2018-05-21T19:51:38.008Z,24.04
2018-05-21T19:54:04.686Z,24.04
2018-05-21T19:56:32.137Z,24.00
2018-05-21T19:58:59.578Z,24.02
2018-05-21T20:01:26.383Z,23.97
2018-05-21T20:03:53.297Z,23.88
2018-05-21T20:06:19.998Z,23.84
2018-05-21T20:08:46.744Z,23.91
2018-05-21T20:11:14.067Z,23.81
2018-05-21T20:13:43.226Z,23.85
2018-05-21T20:16:12.430Z,23.81
2018-05-21T20:18:39.881Z,23.79
2018-05-21T20:21:06.667Z,23.75
2018-05-21T20:23:34.908Z,23.70
2018-05-21T20:26:04.379Z,23.65
2018-05-21T20:28:31.065Z,23.70
2018-05-21T20:30:58.101Z,23.66
2018-05-21T20:33:25.132Z,23.56
2018-05-21T20:35:52.169Z,23.54
2018-05-21T20:38:18.855Z,23.51
2018-05-21T20:40:45.670Z,23.60
2018-05-21T20:43:12.455Z,23.51
2018-05-21T20:45:39.192Z,23.43
2018-05-21T20:48:05.987Z,23.48
2018-05-21T20:50:33.968Z,23.45
2018-05-21T20:53:00.726Z,23.41
2018-05-21T20:55:27.388Z,23.36
2018-05-21T20:57:54.105Z,23.38
2018-05-21T21:00:20.792Z,23.41
2018-05-21T21:02:48.288Z,23.36
2018-05-21T21:05:14.913Z,23.29
2018-05-21T21:07:42.342Z,23.18
2018-05-21T21:10:09.099Z,23.17
2018-05-21T21:12:36.633Z,23.22
2018-05-21T21:15:03.309Z,23.20
2018-05-21T21:17:30.801Z,23.14
2018-05-21T21:19:57.473Z,23.17
2018-05-21T21:22:24.164Z,23.14
2018-05-21T21:24:50.859Z,23.11
2018-05-21T21:27:17.622Z,23.07
2018-05-21T21:29:45.034Z,23.05
2018-05-21T21:32:11.806Z,23.06
2018-05-21T21:34:38.445Z,22.99
2018-05-21T21:37:05.229Z,23.02
2018-05-21T21:39:31.939Z,22.87
2018-05-21T21:41:59.345Z,22.81
2018-05-21T21:44:26.066Z,22.65
2018-05-21T21:46:52.898Z,22.51
2018-05-21T21:49:19.567Z,22.42
2018-05-21T21:51:46.256Z,22.32
2018-05-21T21:54:13.649Z,22.17
2018-05-21T21:56:40.404Z,22.04
2018-05-21T21:59:07.062Z,21.93
2018-05-21T22:01:33.755Z,21.71
2018-05-21T22:04:00.468Z,21.65
2018-05-21T22:06:27.982Z,21.63
2018-05-21T22:08:54.622Z,21.57
2018-05-21T22:11:21.387Z,21.64
2018-05-21T22:13:48.048Z,21.56
2018-05-21T22:16:15.433Z,21.55
2018-05-21T22:18:42.139Z,21.48
2018-05-21T22:21:08.800Z,21.57
2018-05-21T22:23:35.429Z,21.55
2018-05-21T22:26:02.852Z,21.58
2018-05-21T22:28:30.241Z,21.52
2018-05-21T22:30:57.702Z,21.42
2018-05-21T22:33:25.085Z,21.33
2018-05-21T22:35:51.718Z,21.22
2018-05-21T22:38:18.373Z,21.11
2018-05-21T22:40:45.019Z,21.08
2018-05-21T22:43:11.907Z,21.09
2018-05-21T22:45:39.300Z,21.02
2018-05-21T22:48:05.953Z,21.15
2018-05-21T22:50:32.726Z,21.03
2018-05-21T22:52:59.382Z,21.05
2018-05-21T22:55:26.919Z,21.13
2018-05-21T22:57:53.557Z,21.03
2018-05-21T23:00:20.258Z,21.07
2018-05-21T23:02:46.888Z,20.90
2018-05-21T23:05:13.766Z,20.90
2018-05-21T23:07:40.401Z,21.01
2018-05-21T23:10:07.020Z,21.06
2018-05-21T23:12:33.724Z,20.95
2018-05-21T23:15:01.222Z,20.96
2018-05-21T23:17:27.854Z,20.95
2018-05-21T23:19:54.644Z,20.96
2018-05-21T23:22:21.396Z,20.93
2018-05-21T23:24:48.766Z,20.91
2018-05-21T23:27:16.133Z,20.90
2018-05-21T23:29:42.798Z,20.92
2018-05-21T23:32:09.518Z,20.79
2018-05-21T23:34:36.147Z,20.61
2018-05-21T23:37:03.077Z,20.61
2018-05-21T23:39:30.474Z,20.44
2018-05-21T23:41:57.211Z,20.30
2018-05-21T23:44:23.881Z,19.91
2018-05-21T23:46:50.525Z,19.83
2018-05-21T23:49:17.250Z,19.76
2018-05-21T23:51:43.891Z,19.76
2018-05-21T23:54:10.672Z,19.78
2018-05-21T23:56:38.057Z,19.75
2018-05-21T23:59:04.714Z,19.78
